Time;durP1;ratioP1;P1;durP2;ratioP2;P2;SDS_P1;SDS_P2;PMS_P1;PMS_P2;Temp;Humidity;BMP_temperature;BMP_pressure;BME280_temperature;BME280_humidity;BME280_pressure;Samples;Min_cycle;Max_cycle;Signal;HPM_P1;HPM_P2
2022/09/01 00:00:50;;;;;;;;;;;13.60;99.90;;;;;;5094809;28;19915;-74
2022/09/01 00:03:20;;;;;;;;;;;13.70;99.90;;;;;;5095674;28;19908;-74
2022/09/01 00:05:49;;;;;;;;;;;13.70;99.90;;;;;;5096287;28;19923;-74
2022/09/01 00:08:15;;;;;;;;;;;13.70;99.90;;;;;;5095577;28;19913;-74
2022/09/01 00:10:41;;;;;;;;;;;13.70;99.90;;;;;;5096059;28;19908;-74
2022/09/01 00:13:06;;;;;;;;;;;13.70;99.90;;;;;;5095371;28;19951;-74
2022/09/01 00:15:33;;;;;;;;;;;13.70;99.90;;;;;;5095874;28;19908;-74
2022/09/01 00:17:59;;;;;;;;;;;13.70;99.90;;;;;;5095661;28;19909;-74
2022/09/01 00:20:24;;;;;;;;;;;13.80;99.90;;;;;;5094879;28;19920;-74
2022/09/01 00:22:50;;;;;;;;;;;13.80;99.90;;;;;;5095511;28;19908;-74
2022/09/01 00:25:18;;;;;;;;;;;13.80;99.90;;;;;;5095177;28;20057;-74
2022/09/01 00:27:45;;;;;;;;;;;13.80;99.90;;;;;;5095505;28;19912;-74
2022/09/01 00:30:10;;;;;;;;;;;13.90;99.90;;;;;;5095143;28;19927;-74
2022/09/01 00:32:36;;;;;;;;;;;13.90;99.90;;;;;;5095523;28;19907;-73
2022/09/01 00:35:02;;;;;;;;;;;13.90;99.90;;;;;;5095098;28;20365;-73
2022/09/01 00:37:28;;;;;;;;;;;13.90;99.90;;;;;;5093695;28;19916;-73
2022/09/01 00:39:53;;;;;;;;;;;13.90;99.90;;;;;;5095477;28;20313;-73
2022/09/01 00:42:19;;;;;;;;;;;13.90;99.90;;;;;;5094766;28;19912;-74
2022/09/01 00:44:45;;;;;;;;;;;13.90;99.90;;;;;;5094743;28;19952;-74
2022/09/01 00:47:10;;;;;;;;;;;13.90;99.90;;;;;;5094459;28;19919;-74
2022/09/01 00:49:46;;;;;;;;;;;13.90;99.90;;;;;;5095245;28;20280;-74
2022/09/01 00:52:15;;;;;;;;;;;13.80;99.90;;;;;;5094310;28;20315;-73
2022/09/01 00:54:42;;;;;;;;;;;13.90;99.90;;;;;;5094910;28;19908;-74
2022/09/01 00:57:09;;;;;;;;;;;13.80;99.90;;;;;;5093080;28;20385;-73
2022/09/01 00:59:37;;;;;;;;;;;13.80;99.90;;;;;;5095121;28;19908;-74
2022/09/01 01:02:02;;;;;;;;;;;13.80;99.90;;;;;;5095354;28;19970;-74
2022/09/01 01:04:29;;;;;;;;;;;13.90;99.90;;;;;;5094145;28;19955;-73
2022/09/01 01:07:01;;;;;;;;;;;13.80;99.90;;;;;;5093617;28;19912;-74
2022/09/01 01:09:28;;;;;;;;;;;13.90;99.90;;;;;;5094203;28;19920;-74
2022/09/01 01:11:59;;;;;;;;;;;13.90;99.90;;;;;;5093468;28;19908;-73
2022/09/01 01:14:26;;;;;;;;;;;13.90;99.90;;;;;;5094019;28;19908;-74
2022/09/01 01:16:53;;;;;;;;;;;14.00;99.90;;;;;;5093185;28;19959;-74
2022/09/01 01:24:57;;;;;;;;;;;14.00;99.90;;;;;;5094534;28;19931;-74
2022/09/01 01:27:23;;;;;;;;;;;14.00;99.90;;;;;;5093823;28;19912;-74
2022/09/01 01:29:51;;;;;;;;;;;14.00;99.90;;;;;;5093049;28;20364;-74
2022/09/01 01:32:17;;;;;;;;;;;13.90;99.90;;;;;;5093863;28;19914;-74
2022/09/01 01:34:44;;;;;;;;;;;14.00;99.90;;;;;;5094252;28;20359;-74
2022/09/01 01:37:13;;;;;;;;;;;14.00;99.90;;;;;;5093571;28;19951;-74
2022/09/01 01:39:39;;;;;;;;;;;14.00;99.90;;;;;;5094257;28;19955;-74
2022/09/01 01:42:08;;;;;;;;;;;14.00;99.90;;;;;;5094001;28;19914;-74
2022/09/01 01:44:36;;;;;;;;;;;14.00;99.90;;;;;;5093710;28;19908;-73
2022/09/01 01:47:04;;;;;;;;;;;14.00;99.90;;;;;;5094078;28;19966;-74
2022/09/01 01:49:30;;;;;;;;;;;13.90;99.90;;;;;;5092929;28;19916;-74
2022/09/01 01:51:56;;;;;;;;;;;14.00;99.90;;;;;;5093989;28;19915;-74
2022/09/01 01:54:23;;;;;;;;;;;14.00;99.90;;;;;;5093256;28;19922;-73
2022/09/01 01:56:49;;;;;;;;;;;14.10;99.90;;;;;;5093239;28;19951;-74
2022/09/01 01:59:15;;;;;;;;;;;14.10;99.90;;;;;;5093332;28;19947;-73
2022/09/01 02:01:49;;;;;;;;;;;14.10;99.90;;;;;;5092817;28;19993;-74
2022/09/01 02:04:16;;;;;;;;;;;14.10;99.90;;;;;;5093398;28;19908;-74
2022/09/01 02:06:44;;;;;;;;;;;14.20;99.90;;;;;;5093470;28;19912;-74
2022/09/01 02:09:11;;;;;;;;;;;14.20;99.90;;;;;;5092393;28;19912;-73
2022/09/01 02:11:36;;;;;;;;;;;14.30;99.90;;;;;;5093140;28;19947;-74
2022/09/01 02:14:02;;;;;;;;;;;14.30;99.90;;;;;;5093575;28;19966;-74
2022/09/01 02:16:31;;;;;;;;;;;14.20;99.90;;;;;;5092945;28;19912;-74
2022/09/01 02:18:57;;;;;;;;;;;14.30;99.90;;;;;;5093309;28;19953;-74
2022/09/01 02:21:23;;;;;;;;;;;14.20;99.90;;;;;;5092807;28;19912;-74
2022/09/01 02:23:56;;;;;;;;;;;14.20;99.90;;;;;;5093619;28;19999;-73
2022/09/01 02:26:28;;;;;;;;;;;14.20;99.90;;;;;;5092800;28;20011;-73
2022/09/01 02:28:54;;;;;;;;;;;14.20;99.90;;;;;;5093527;28;19935;-74
2022/09/01 02:31:21;;;;;;;;;;;14.30;99.90;;;;;;5092465;28;20361;-73
2022/09/01 02:33:47;;;;;;;;;;;14.30;99.90;;;;;;5093385;28;19997;-74
2022/09/01 02:36:16;;;;;;;;;;;14.30;99.90;;;;;;5091591;28;19920;-74
2022/09/01 02:38:44;;;;;;;;;;;14.40;99.90;;;;;;5092925;28;19915;-74
2022/09/01 02:41:11;;;;;;;;;;;14.40;99.90;;;;;;5092952;28;20330;-74
2022/09/01 02:43:38;;;;;;;;;;;14.40;99.90;;;;;;5092973;28;19908;-74
2022/09/01 02:46:05;;;;;;;;;;;14.40;99.90;;;;;;5093154;28;19912;-74
2022/09/01 02:48:40;;;;;;;;;;;14.50;99.90;;;;;;5092293;28;19912;-73
2022/09/01 02:51:07;;;;;;;;;;;14.50;99.90;;;;;;5093240;28;19908;-73
2022/09/01 02:53:38;;;;;;;;;;;14.50;99.90;;;;;;5092298;28;20404;-73
2022/09/01 02:56:08;;;;;;;;;;;14.50;99.90;;;;;;5093594;28;19914;-74
2022/09/01 02:58:39;;;;;;;;;;;14.50;99.90;;;;;;5092420;28;19912;-74
2022/09/01 03:01:10;;;;;;;;;;;14.60;99.90;;;;;;5092939;28;19912;-74
2022/09/01 03:03:36;;;;;;;;;;;14.60;99.90;;;;;;5092507;28;20487;-74
2022/09/01 03:06:03;;;;;;;;;;;14.60;99.90;;;;;;5093207;28;19924;-74
2022/09/01 03:08:35;;;;;;;;;;;14.60;99.90;;;;;;5096530;28;19912;-74
2022/09/01 03:11:02;;;;;;;;;;;14.60;99.90;;;;;;5097284;28;19915;-74
2022/09/01 03:13:28;;;;;;;;;;;14.70;99.90;;;;;;5096509;28;19916;-74
2022/09/01 03:15:53;;;;;;;;;;;14.70;99.90;;;;;;5097220;28;19908;-74
2022/09/01 03:18:19;;;;;;;;;;;14.80;99.90;;;;;;5096530;28;20242;-75
2022/09/01 03:20:45;;;;;;;;;;;14.90;99.90;;;;;;5097047;28;20372;-75
2022/09/01 03:23:13;;;;;;;;;;;14.90;99.90;;;;;;5096314;28;20283;-74
2022/09/01 03:25:42;;;;;;;;;;;15.00;99.90;;;;;;5096040;28;19916;-74
2022/09/01 03:28:08;;;;;;;;;;;15.00;99.90;;;;;;5095497;28;20092;-74
2022/09/01 03:30:35;;;;;;;;;;;15.10;99.90;;;;;;5096251;28;19908;-74
2022/09/01 03:33:01;;;;;;;;;;;15.10;99.90;;;;;;5096714;28;19995;-74
2022/09/01 03:35:27;;;;;;;;;;;15.10;99.90;;;;;;5095473;28;19920;-74
2022/09/01 03:37:57;;;;;;;;;;;15.10;99.90;;;;;;5096850;28;19915;-74
2022/09/01 03:40:31;;;;;;;;;;;15.20;99.90;;;;;;5095993;28;19970;-74
2022/09/01 03:43:00;;;;;;;;;;;15.20;99.90;;;;;;5096577;28;19912;-74
2022/09/01 03:45:28;;;;;;;;;;;15.30;99.90;;;;;;5095873;28;19909;-74
2022/09/01 03:47:54;;;;;;;;;;;15.30;99.90;;;;;;5096424;28;19912;-74
2022/09/01 03:50:21;;;;;;;;;;;15.30;99.90;;;;;;5095924;28;19965;-74
2022/09/01 03:52:52;;;;;;;;;;;15.40;99.90;;;;;;5094999;28;20280;-74
2022/09/01 03:55:22;;;;;;;;;;;15.40;99.90;;;;;;5096011;28;19908;-74
2022/09/01 03:57:51;;;;;;;;;;;15.40;99.90;;;;;;5096162;28;19995;-73
2022/09/01 04:00:22;;;;;;;;;;;15.40;99.90;;;;;;5095949;28;19908;-74
2022/09/01 04:02:54;;;;;;;;;;;15.40;99.90;;;;;;5096249;28;19915;-74
2022/09/01 04:05:23;;;;;;;;;;;15.40;99.90;;;;;;5095884;28;19908;-74
2022/09/01 04:07:50;;;;;;;;;;;15.40;99.90;;;;;;5095918;28;19912;-74
2022/09/01 04:10:16;;;;;;;;;;;15.30;99.90;;;;;;5096472;28;19912;-74
2022/09/01 04:12:42;;;;;;;;;;;15.40;99.90;;;;;;5095397;28;19991;-74
2022/09/01 04:15:08;;;;;;;;;;;15.40;99.90;;;;;;5094539;28;20054;-73
2022/09/01 04:20:19;;;;;;;;;;;15.40;99.90;;;;;;5095572;28;19915;-74
2022/09/01 04:22:46;;;;;;;;;;;15.40;99.90;;;;;;5095266;28;19953;-73
2022/09/01 04:25:12;;;;;;;;;;;15.40;99.90;;;;;;5096037;28;19908;-74
2022/09/01 04:27:39;;;;;;;;;;;15.40;99.90;;;;;;5093681;28;20350;-74
2022/09/01 04:30:09;;;;;;;;;;;15.40;99.90;;;;;;5095632;28;19919;-74
2022/09/01 04:32:39;;;;;;;;;;;15.40;99.90;;;;;;5095002;28;19915;-74
2022/09/01 04:35:05;;;;;;;;;;;15.40;99.90;;;;;;5095432;28;20018;-74
2022/09/01 04:37:31;;;;;;;;;;;15.40;99.90;;;;;;5094962;28;19951;-74
2022/09/01 04:39:57;;;;;;;;;;;15.40;99.90;;;;;;5095335;28;19953;-74
2022/09/01 04:42:24;;;;;;;;;;;15.40;99.90;;;;;;5095030;28;19915;-74
2022/09/01 04:44:52;;;;;;;;;;;15.30;99.90;;;;;;5095623;28;19908;-73
2022/09/01 04:47:28;;;;;;;;;;;15.30;99.90;;;;;;5095029;28;20319;-73
2022/09/01 04:49:56;;;;;;;;;;;15.30;99.90;;;;;;5095780;28;19919;-74
2022/09/01 04:52:22;;;;;;;;;;;15.30;99.90;;;;;;5095118;28;20353;-74
2022/09/01 04:54:48;;;;;;;;;;;15.30;99.90;;;;;;5094659;28;19912;-74
2022/09/01 04:57:15;;;;;;;;;;;15.30;99.90;;;;;;5094758;28;20375;-74
2022/09/01 04:59:41;;;;;;;;;;;15.30;99.90;;;;;;5094435;28;19934;-74
2022/09/01 05:02:08;;;;;;;;;;;15.30;99.90;;;;;;5094947;28;19912;-74
2022/09/01 05:04:34;;;;;;;;;;;15.30;99.90;;;;;;5094359;28;19943;-74
2022/09/01 05:07:00;;;;;;;;;;;15.30;99.90;;;;;;5094940;28;19966;-74
2022/09/01 05:09:27;;;;;;;;;;;15.30;99.90;;;;;;5094453;28;19939;-74
2022/09/01 05:11:53;;;;;;;;;;;15.30;99.90;;;;;;5094898;28;19916;-74
2022/09/01 05:14:20;;;;;;;;;;;15.30;99.90;;;;;;5094549;28;19908;-74
2022/09/01 05:16:46;;;;;;;;;;;15.30;99.90;;;;;;5094088;28;20034;-74
2022/09/01 05:19:13;;;;;;;;;;;15.20;99.90;;;;;;5094725;28;19940;-74
2022/09/01 05:21:46;;;;;;;;;;;15.20;99.90;;;;;;5093761;28;20399;-74
2022/09/01 05:24:15;;;;;;;;;;;15.20;99.90;;;;;;5094381;28;19908;-74
2022/09/01 05:26:41;;;;;;;;;;;15.20;99.90;;;;;;5093653;28;20314;-73
2022/09/01 05:29:12;;;;;;;;;;;15.20;99.90;;;;;;5094303;28;20280;-74
2022/09/01 05:31:38;;;;;;;;;;;15.20;99.90;;;;;;5093973;28;20364;-74
2022/09/01 05:34:06;;;;;;;;;;;15.30;99.90;;;;;;5094349;28;19908;-74
2022/09/01 05:36:32;;;;;;;;;;;15.30;99.90;;;;;;5093466;28;19920;-73
2022/09/01 05:38:58;;;;;;;;;;;15.30;99.90;;;;;;5094295;28;20040;-74
2022/09/01 05:41:24;;;;;;;;;;;15.30;99.90;;;;;;5093999;28;19908;-73
2022/09/01 05:43:51;;;;;;;;;;;15.30;99.90;;;;;;5093659;28;19926;-74
2022/09/01 05:46:19;;;;;;;;;;;15.30;99.90;;;;;;5094081;28;19919;-73
2022/09/01 05:48:48;;;;;;;;;;;15.30;99.90;;;;;;5093195;28;19958;-74
2022/09/01 05:51:18;;;;;;;;;;;15.30;99.90;;;;;;5093799;28;20277;-75
2022/09/01 05:53:45;;;;;;;;;;;15.40;99.90;;;;;;5093795;28;19908;-75
2022/09/01 05:56:12;;;;;;;;;;;15.40;99.90;;;;;;5093861;28;19909;-74
2022/09/01 05:58:39;;;;;;;;;;;15.40;99.90;;;;;;5093231;28;19912;-73
2022/09/01 06:01:05;;;;;;;;;;;15.40;99.90;;;;;;5093794;28;19915;-73
2022/09/01 06:03:32;;;;;;;;;;;15.50;99.90;;;;;;5093102;28;20034;-74
2022/09/01 06:06:07;;;;;;;;;;;15.50;99.90;;;;;;5093582;28;19998;-74
2022/09/01 06:08:33;;;;;;;;;;;15.50;99.90;;;;;;5091873;28;19912;-73
2022/09/01 06:10:59;;;;;;;;;;;15.60;99.90;;;;;;5093390;28;20321;-74
2022/09/01 06:13:24;;;;;;;;;;;15.60;99.90;;;;;;5092007;28;20353;-74
2022/09/01 06:15:52;;;;;;;;;;;15.70;99.90;;;;;;5092838;28;19912;-74
2022/09/01 06:18:18;;;;;;;;;;;15.70;99.90;;;;;;5093659;28;19915;-74
2022/09/01 06:20:45;;;;;;;;;;;15.70;99.90;;;;;;5093004;28;19908;-74
2022/09/01 06:23:13;;;;;;;;;;;15.70;99.90;;;;;;5093337;28;19908;-74
2022/09/01 06:25:42;;;;;;;;;;;15.60;99.90;;;;;;5092597;28;19934;-74
2022/09/01 06:28:10;;;;;;;;;;;15.70;99.90;;;;;;5093165;28;19997;-74
2022/09/01 06:30:37;;;;;;;;;;;15.70;99.90;;;;;;5092364;28;19961;-74
2022/09/01 06:33:08;;;;;;;;;;;15.80;99.90;;;;;;5093309;28;19914;-74
2022/09/01 06:35:34;;;;;;;;;;;15.80;99.90;;;;;;5092665;28;19920;-74
2022/09/01 06:38:00;;;;;;;;;;;15.80;99.90;;;;;;5093142;28;19908;-74
2022/09/01 06:40:26;;;;;;;;;;;15.90;99.90;;;;;;5093027;28;19909;-75
2022/09/01 06:42:52;;;;;;;;;;;15.90;99.90;;;;;;5092102;28;20304;-74
2022/09/01 06:45:19;;;;;;;;;;;15.90;99.90;;;;;;5091756;28;19908;-75
2022/09/01 06:47:46;;;;;;;;;;;15.90;99.90;;;;;;5092350;28;19912;-76
2022/09/01 06:50:13;;;;;;;;;;;15.90;99.90;;;;;;5093082;28;19912;-75
2022/09/01 06:52:41;;;;;;;;;;;16.00;99.90;;;;;;5092401;28;19951;-75
2022/09/01 06:55:08;;;;;;;;;;;16.00;99.90;;;;;;5091894;28;19986;-74
2022/09/01 06:57:34;;;;;;;;;;;16.00;99.90;;;;;;5092806;28;19931;-74
2022/09/01 07:00:06;;;;;;;;;;;16.00;99.90;;;;;;5091777;28;19908;-74
2022/09/01 07:02:32;;;;;;;;;;;16.00;99.90;;;;;;5092630;28;19908;-74
2022/09/01 07:04:58;;;;;;;;;;;16.00;99.90;;;;;;5092725;28;19930;-75
2022/09/01 07:07:26;;;;;;;;;;;16.10;99.90;;;;;;5092654;28;20349;-74
2022/09/01 07:09:52;;;;;;;;;;;16.10;99.90;;;;;;5092249;28;19925;-75
2022/09/01 07:12:19;;;;;;;;;;;16.20;99.90;;;;;;5092645;28;19908;-74
2022/09/01 07:14:47;;;;;;;;;;;16.20;99.90;;;;;;5092137;28;19908;-74
2022/09/01 07:17:12;;;;;;;;;;;16.30;99.90;;;;;;5092579;28;20010;-74
2022/09/01 07:19:38;;;;;;;;;;;16.30;99.90;;;;;;5092053;28;19955;-74
2022/09/01 07:22:04;;;;;;;;;;;16.40;99.90;;;;;;5092672;28;19961;-74
2022/09/01 07:24:30;;;;;;;;;;;16.50;99.90;;;;;;5092566;28;20325;-74
2022/09/01 07:26:55;;;;;;;;;;;16.50;99.90;;;;;;5092123;28;19956;-75
2022/09/01 07:29:24;;;;;;;;;;;16.50;99.90;;;;;;5092847;28;20286;-74
2022/09/01 07:31:53;;;;;;;;;;;16.40;99.90;;;;;;5092045;28;20004;-73
2022/09/01 07:34:19;;;;;;;;;;;16.50;99.90;;;;;;5092111;28;20388;-74
2022/09/01 07:36:44;;;;;;;;;;;16.50;99.90;;;;;;5092087;28;19920;-74
2022/09/01 07:39:12;;;;;;;;;;;16.40;99.90;;;;;;5092646;28;19972;-73
2022/09/01 07:41:40;;;;;;;;;;;16.40;99.90;;;;;;5091550;28;20289;-74
2022/09/01 07:44:09;;;;;;;;;;;16.50;99.90;;;;;;5092743;28;20050;-73
2022/09/01 07:46:35;;;;;;;;;;;16.50;99.90;;;;;;5092010;28;19913;-74
2022/09/01 07:49:01;;;;;;;;;;;16.50;99.90;;;;;;5092354;28;20003;-74
2022/09/01 07:51:28;;;;;;;;;;;16.50;99.90;;;;;;5091415;28;20281;-74
2022/09/01 07:53:54;;;;;;;;;;;16.50;99.90;;;;;;5094780;28;19912;-75
2022/09/01 07:56:21;;;;;;;;;;;16.50;99.90;;;;;;5096082;28;19935;-74
2022/09/01 07:58:47;;;;;;;;;;;16.60;99.90;;;;;;5095473;28;19953;-74
2022/09/01 08:01:16;;;;;;;;;;;16.60;99.90;;;;;;5095966;28;19908;-74
2022/09/01 08:03:41;;;;;;;;;;;16.60;99.90;;;;;;5095345;28;19917;-75
2022/09/01 08:06:08;;;;;;;;;;;16.60;99.90;;;;;;5095746;28;19935;-75
2022/09/01 08:08:35;;;;;;;;;;;16.60;99.90;;;;;;5095553;28;19919;-72
2022/09/01 08:11:01;;;;;;;;;;;16.50;99.90;;;;;;5095220;28;19908;-74
2022/09/01 08:13:26;;;;;;;;;;;16.60;99.90;;;;;;5094008;28;20357;-74
2022/09/01 08:15:52;;;;;;;;;;;16.60;99.90;;;;;;5094968;28;19915;-73
2022/09/01 08:18:18;;;;;;;;;;;16.70;99.90;;;;;;5095702;28;20037;-73
2022/09/01 08:20:46;;;;;;;;;;;16.70;99.90;;;;;;5095207;28;19908;-73
2022/09/01 08:23:13;;;;;;;;;;;16.80;99.90;;;;;;5095438;28;19908;-74
2022/09/01 08:25:40;;;;;;;;;;;16.80;99.90;;;;;;5094830;28;20272;-73
2022/09/01 08:28:07;;;;;;;;;;;16.90;99.90;;;;;;5095383;28;19951;-74
2022/09/01 08:30:33;;;;;;;;;;;16.90;99.90;;;;;;5095337;28;19926;-74
2022/09/01 08:32:59;;;;;;;;;;;17.00;99.90;;;;;;5094770;28;19912;-74
2022/09/01 08:35:25;;;;;;;;;;;17.00;99.90;;;;;;5093187;28;19982;-73
2022/09/01 08:37:50;;;;;;;;;;;17.00;99.90;;;;;;5094524;28;20365;-74
2022/09/01 08:40:17;;;;;;;;;;;17.10;99.90;;;;;;5095328;28;19920;-74
2022/09/01 08:42:57;;;;;;;;;;;17.20;99.90;;;;;;5093420;28;20229;-74
2022/09/01 08:45:29;;;;;;;;;;;17.20;99.90;;;;;;5095208;28;19908;-73
2022/09/01 08:47:56;;;;;;;;;;;17.20;99.90;;;;;;5094591;28;19912;-73
2022/09/01 08:50:22;;;;;;;;;;;17.30;99.90;;;;;;5095275;28;19912;-73
2022/09/01 08:52:57;;;;;;;;;;;17.50;99.90;;;;;;5094021;28;20159;-73
2022/09/01 08:55:26;;;;;;;;;;;17.50;99.90;;;;;;5094995;28;20284;-74
2022/09/01 08:57:54;;;;;;;;;;;17.80;99.90;;;;;;5094194;28;19911;-74
2022/09/01 09:00:23;;;;;;;;;;;17.90;99.90;;;;;;5093675;28;20296;-74
2022/09/01 09:02:48;;;;;;;;;;;18.10;99.90;;;;;;5094080;28;20353;-74
2022/09/01 09:05:20;;;;;;;;;;;18.30;99.90;;;;;;5094013;28;19961;-73
2022/09/01 09:08:04;;;;;;;;;;;18.40;99.90;;;;;;5093735;28;19912;-73
2022/09/01 09:10:49;;;;;;;;;;;18.40;99.90;;;;;;5094810;28;20047;-74
2022/09/01 09:13:38;;;;;;;;;;;18.40;99.90;;;;;;5082646;28;19908;-74
2022/09/01 09:16:07;;;;;;;;;;;18.40;99.90;;;;;;5090465;28;19994;-74
2022/09/01 09:18:32;;;;;;;;;;;18.40;99.90;;;;;;5093972;28;19914;-74
2022/09/01 09:21:04;;;;;;;;;;;18.50;99.90;;;;;;5093594;28;19943;-74
2022/09/01 09:23:33;;;;;;;;;;;18.60;99.90;;;;;;5094059;28;19908;-74
2022/09/01 09:25:58;;;;;;;;;;;18.70;99.90;;;;;;5092538;28;20315;-74
2022/09/01 09:28:24;;;;;;;;;;;18.70;99.90;;;;;;5094192;28;19912;-73
2022/09/01 09:30:50;;;;;;;;;;;18.60;99.90;;;;;;5092463;28;20007;-74
2022/09/01 09:33:33;;;;;;;;;;;18.70;99.90;;;;;;5093927;28;19953;-74
2022/09/01 09:36:15;;;;;;;;;;;18.70;99.90;;;;;;5093566;28;19924;-75
2022/09/01 09:38:41;;;;;;;;;;;18.80;99.90;;;;;;5093997;28;20369;-73
2022/09/01 09:41:12;;;;;;;;;;;18.80;99.90;;;;;;5093772;28;19915;-74
2022/09/01 09:43:42;;;;;;;;;;;18.90;99.90;;;;;;5093973;28;20355;-74
2022/09/01 09:46:20;;;;;;;;;;;19.10;99.90;;;;;;5093172;28;19916;-74
2022/09/01 09:48:45;;;;;;;;;;;19.20;99.90;;;;;;5093724;28;19916;-74
2022/09/01 09:51:29;;;;;;;;;;;19.30;99.90;;;;;;5093723;28;19999;-74
2022/09/01 09:54:09;;;;;;;;;;;19.40;99.90;;;;;;5091578;28;20319;-74
2022/09/01 09:56:34;;;;;;;;;;;19.50;99.90;;;;;;5093406;28;19908;-75
2022/09/01 09:59:00;;;;;;;;;;;19.40;99.90;;;;;;5091544;28;20233;-73
2022/09/01 10:01:26;;;;;;;;;;;19.40;99.90;;;;;;5091911;28;19919;-74
2022/09/01 10:03:52;;;;;;;;;;;19.40;99.90;;;;;;5092671;28;19909;-73
2022/09/01 10:06:30;;;;;;;;;;;19.30;99.90;;;;;;5093374;28;20034;-73
2022/09/01 10:08:57;;;;;;;;;;;19.20;99.90;;;;;;5092712;28;19912;-74
2022/09/01 10:11:39;;;;;;;;;;;19.20;99.90;;;;;;5093100;28;19922;-74
2022/09/01 10:14:34;;;;;;;;;;;19.20;99.90;;;;;;5091145;28;19915;-74
2022/09/01 10:17:20;;;;;;;;;;;19.10;99.90;;;;;;5085937;28;19908;-74
2022/09/01 10:19:49;;;;;;;;;;;19.00;99.90;;;;;;5088276;28;19931;-74
2022/09/01 10:22:15;;;;;;;;;;;19.00;99.90;;;;;;5093182;28;19908;-75
2022/09/01 10:24:40;;;;;;;;;;;18.90;99.90;;;;;;5091900;28;20411;-74
2022/09/01 10:27:10;;;;;;;;;;;18.90;99.90;;;;;;5092411;28;19912;-74
2022/09/01 10:29:35;;;;;;;;;;;18.80;99.90;;;;;;5093260;28;19916;-74
2022/09/01 10:32:03;;;;;;;;;;;18.80;99.90;;;;;;5092318;28;20487;-74
2022/09/01 10:34:33;;;;;;;;;;;18.70;99.90;;;;;;5092818;28;19912;-74
2022/09/01 10:36:59;;;;;;;;;;;18.60;99.90;;;;;;5091602;28;20324;-74
2022/09/01 10:39:24;;;;;;;;;;;18.60;99.90;;;;;;5091848;28;19909;-74
2022/09/01 10:41:52;;;;;;;;;;;18.50;99.90;;;;;;5092709;28;19915;-73
2022/09/01 10:44:20;;;;;;;;;;;18.40;99.90;;;;;;5092584;28;19915;-75
2022/09/01 10:46:45;;;;;;;;;;;18.30;99.90;;;;;;5090847;28;19916;-74
2022/09/01 10:49:29;;;;;;;;;;;18.30;99.90;;;;;;5092508;28;19912;-75
2022/09/01 10:51:55;;;;;;;;;;;18.30;99.90;;;;;;5092251;28;19912;-74
2022/09/01 10:54:39;;;;;;;;;;;18.40;99.90;;;;;;5091828;28;20272;-74
2022/09/01 10:57:31;;;;;;;;;;;18.40;99.90;;;;;;5092478;28;20373;-75
2022/09/01 11:00:16;;;;;;;;;;;18.50;99.90;;;;;;5083457;28;19916;-74
2022/09/01 11:03:02;;;;;;;;;;;18.70;99.90;;;;;;5092744;28;19908;-75
2022/09/01 11:05:47;;;;;;;;;;;19.00;99.90;;;;;;5093212;28;19909;-75
2022/09/01 11:08:28;;;;;;;;;;;19.10;99.90;;;;;;5092931;28;20313;-75
2022/09/01 11:11:12;;;;;;;;;;;19.20;99.90;;;;;;5092037;28;19908;-75
2022/09/01 11:13:42;;;;;;;;;;;19.30;99.90;;;;;;5092850;28;19908;-73
2022/09/01 11:16:26;;;;;;;;;;;19.40;99.90;;;;;;5092461;28;19919;-74
2022/09/01 11:18:52;;;;;;;;;;;19.50;99.90;;;;;;5092382;28;19909;-75
2022/09/01 11:21:26;;;;;;;;;;;19.60;99.90;;;;;;5092633;28;19908;-74
2022/09/01 11:24:12;;;;;;;;;;;19.50;99.90;;;;;;5092071;28;19915;-73
2022/09/01 11:26:45;;;;;;;;;;;19.30;99.90;;;;;;5080972;28;19985;-74
2022/09/01 11:29:30;;;;;;;;;;;19.40;99.90;;;;;;5095540;28;19912;-74
2022/09/01 11:31:57;;;;;;;;;;;19.30;99.90;;;;;;5096401;28;19915;-74
2022/09/01 11:34:23;;;;;;;;;;;19.40;99.90;;;;;;5096701;28;19909;-74
2022/09/01 11:36:53;;;;;;;;;;;19.40;99.90;;;;;;5095851;28;19946;-74
2022/09/01 11:39:21;;;;;;;;;;;19.30;99.90;;;;;;5096140;28;19965;-74
2022/09/01 11:42:02;;;;;;;;;;;19.30;99.90;;;;;;5096491;28;19908;-74
2022/09/01 11:44:51;;;;;;;;;;;19.40;99.90;;;;;;5095068;28;19908;-75
2022/09/01 11:47:29;;;;;;;;;;;19.50;99.90;;;;;;5096752;28;20065;-74
2022/09/01 11:50:18;;;;;;;;;;;19.60;99.90;;;;;;5096228;28;20011;-74
2022/09/01 11:52:51;;;;;;;;;;;19.70;99.90;;;;;;5093551;28;20012;-74
2022/09/01 11:55:26;;;;;;;;;;;19.60;99.90;;;;;;5097062;28;19908;-74
2022/09/01 11:57:52;;;;;;;;;;;19.50;99.90;;;;;;5095210;28;20001;-74
2022/09/01 12:00:24;;;;;;;;;;;19.50;99.90;;;;;;5096420;28;19909;-73
2022/09/01 12:02:51;;;;;;;;;;;19.50;99.90;;;;;;5094939;28;20007;-73
2022/09/01 12:05:26;;;;;;;;;;;19.70;99.90;;;;;;5094681;28;19965;-74
2022/09/01 12:07:51;;;;;;;;;;;19.90;99.90;;;;;;5095699;28;20341;-74
2022/09/01 12:10:26;;;;;;;;;;;19.80;99.90;;;;;;5095649;28;19957;-75
2022/09/01 12:13:08;;;;;;;;;;;19.80;99.90;;;;;;5095724;28;19912;-75
2022/09/01 12:15:35;;;;;;;;;;;19.90;99.90;;;;;;5094731;28;19908;-75
2022/09/01 12:18:08;;;;;;;;;;;20.10;99.90;;;;;;5094063;28;20353;-75
2022/09/01 12:20:37;;;;;;;;;;;20.10;99.90;;;;;;5095872;28;19908;-74
2022/09/01 12:23:12;;;;;;;;;;;20.10;99.90;;;;;;5094894;28;20420;-75
2022/09/01 12:25:38;;;;;;;;;;;20.20;99.90;;;;;;5096144;28;19946;-74
2022/09/01 12:28:06;;;;;;;;;;;20.20;99.90;;;;;;5095177;28;19952;-75
2022/09/01 12:30:38;;;;;;;;;;;20.20;99.90;;;;;;5095677;28;19912;-75
2022/09/01 12:33:08;;;;;;;;;;;20.20;99.90;;;;;;5095117;28;20049;-74
2022/09/01 12:35:34;;;;;;;;;;;20.20;99.90;;;;;;5094177;28;20372;-74
2022/09/01 12:38:20;;;;;;;;;;;20.30;99.90;;;;;;5093757;28;21240;-74
2022/09/01 12:40:48;;;;;;;;;;;20.50;99.90;;;;;;5094481;28;19912;-74
2022/09/01 12:43:32;;;;;;;;;;;20.50;99.90;;;;;;5094631;28;19911;-74
2022/09/01 12:46:00;;;;;;;;;;;20.40;99.90;;;;;;5093253;28;20314;-75
2022/09/01 12:48:28;;;;;;;;;;;20.10;99.90;;;;;;5095667;28;20317;-75
2022/09/01 12:50:55;;;;;;;;;;;19.70;99.90;;;;;;5094170;28;20268;-75
2022/09/01 12:53:22;;;;;;;;;;;19.60;99.90;;;;;;5094721;28;19918;-74
2022/09/01 12:55:58;;;;;;;;;;;19.50;99.90;;;;;;5093250;28;20345;-75
2022/09/01 12:58:24;;;;;;;;;;;19.40;99.90;;;;;;5093357;28;19930;-74
2022/09/01 13:00:53;;;;;;;;;;;19.20;99.90;;;;;;5094418;28;20267;-74
2022/09/01 13:03:20;;;;;;;;;;;19.20;99.90;;;;;;5094179;28;19962;-74
2022/09/01 13:05:50;;;;;;;;;;;19.30;99.90;;;;;;5093082;28;19908;-74
2022/09/01 13:08:17;;;;;;;;;;;19.10;99.90;;;;;;5093553;28;20345;-74
2022/09/01 13:10:45;;;;;;;;;;;19.10;99.90;;;;;;5094387;28;19912;-74
2022/09/01 13:13:11;;;;;;;;;;;18.90;99.90;;;;;;5093551;28;19940;-74
2022/09/01 13:15:39;;;;;;;;;;;19.00;99.90;;;;;;5093912;28;19908;-74
2022/09/01 13:18:04;;;;;;;;;;;18.80;99.90;;;;;;5093367;28;20288;-74
2022/09/01 13:20:30;;;;;;;;;;;18.90;99.90;;;;;;5093881;28;19908;-74
2022/09/01 13:22:56;;;;;;;;;;;18.90;99.90;;;;;;5093264;28;19908;-74
2022/09/01 13:25:22;;;;;;;;;;;19.10;99.90;;;;;;5094068;28;19912;-74
2022/09/01 13:27:48;;;;;;;;;;;19.20;99.90;;;;;;5093825;28;20011;-75
2022/09/01 13:30:14;;;;;;;;;;;19.10;99.90;;;;;;5093130;28;19916;-74
2022/09/01 13:32:43;;;;;;;;;;;18.90;99.90;;;;;;5093895;28;19969;-74
2022/09/01 13:35:09;;;;;;;;;;;18.80;99.90;;;;;;5092969;28;19916;-74
2022/09/01 13:37:35;;;;;;;;;;;18.70;99.90;;;;;;5093500;28;19918;-74
2022/09/01 13:40:01;;;;;;;;;;;18.70;99.90;;;;;;5092905;28;20294;-74
2022/09/01 13:42:26;;;;;;;;;;;18.60;99.90;;;;;;5093660;28;19912;-74
2022/09/01 13:44:52;;;;;;;;;;;18.40;99.90;;;;;;5093467;28;19961;-75
2022/09/01 13:47:17;;;;;;;;;;;18.40;99.90;;;;;;5093111;28;20011;-75
2022/09/01 13:49:43;;;;;;;;;;;18.40;99.90;;;;;;5093313;28;19912;-75
2022/09/01 13:52:09;;;;;;;;;;;18.30;99.90;;;;;;5092699;28;19912;-75
2022/09/01 13:54:34;;;;;;;;;;;18.40;99.90;;;;;;5093291;28;19909;-75
2022/09/01 13:57:00;;;;;;;;;;;18.40;99.90;;;;;;5093325;28;19963;-75
2022/09/01 13:59:26;;;;;;;;;;;18.70;99.90;;;;;;5094094;28;19908;-75
2022/09/01 14:01:52;;;;;;;;;;;18.90;99.90;;;;;;5088476;28;19909;-75
2022/09/01 14:04:18;;;;;;;;;;;19.00;99.90;;;;;;5080904;28;19913;-75
2022/09/01 14:06:44;;;;;;;;;;;19.00;99.90;;;;;;5093616;28;20395;-75
2022/09/01 14:09:10;;;;;;;;;;;19.00;99.90;;;;;;5078637;28;19920;-75
2022/09/01 14:11:36;;;;;;;;;;;19.10;99.90;;;;;;5080996;28;19923;-75
2022/09/01 14:14:02;;;;;;;;;;;19.00;99.90;;;;;;5089502;28;19911;-75
2022/09/01 14:16:27;;;;;;;;;;;19.10;99.90;;;;;;5093891;28;19939;-75
2022/09/01 14:18:53;;;;;;;;;;;18.90;99.90;;;;;;5095155;28;19908;-75
2022/09/01 14:21:19;;;;;;;;;;;19.00;99.90;;;;;;5091180;28;19963;-75
2022/09/01 14:23:45;;;;;;;;;;;19.00;99.90;;;;;;5103022;28;20289;-75
2022/09/01 14:26:12;;;;;;;;;;;19.10;99.90;;;;;;5099201;28;20601;-74
2022/09/01 14:28:38;;;;;;;;;;;19.20;99.90;;;;;;5073805;28;20393;-73
2022/09/01 14:31:08;;;;;;;;;;;19.10;99.90;;;;;;5073270;28;19912;-74
2022/09/01 14:33:34;;;;;;;;;;;19.10;99.90;;;;;;5073395;28;20389;-74